createdAt,value
2022-12-28T00:02:33.047Z,3.63
2022-12-28T00:06:37.878Z,3.83
2022-12-28T00:11:07.844Z,3.23
2022-12-28T00:15:03.936Z,4.33
2022-12-28T00:19:08.331Z,3.33
2022-12-28T00:23:12.653Z,3.83
2022-12-28T00:27:15.523Z,4.13
2022-12-28T00:31:19.042Z,3.63
2022-12-28T00:35:22.711Z,3.70
2022-12-28T00:39:27.159Z,4.33
2022-12-28T00:43:29.990Z,4.37
2022-12-28T00:47:35.103Z,3.80
2022-12-28T00:51:38.154Z,3.80
2022-12-28T00:55:43.691Z,3.97
2022-12-28T00:59:46.600Z,4.40
2022-12-28T01:03:49.708Z,3.87
2022-12-28T01:07:54.293Z,4.53
2022-12-28T01:11:58.796Z,3.87
2022-12-28T01:16:01.655Z,3.80
2022-12-28T01:20:05.642Z,4.10
2022-12-28T01:24:10.864Z,3.90
2022-12-28T01:28:15.940Z,4.37
2022-12-28T01:32:19.475Z,4.70
2022-12-28T01:36:24.399Z,4.33
2022-12-28T01:40:27.317Z,3.67
2022-12-28T01:44:43.801Z,3.67
2022-12-28T01:48:53.958Z,3.90
2022-12-28T01:53:01.240Z,3.97
2022-12-28T01:57:04.891Z,3.70
2022-12-28T02:01:09.665Z,4.23
2022-12-28T02:05:13.433Z,4.80
2022-12-28T02:09:20.525Z,4.00
2022-12-28T02:13:25.849Z,4.10
2022-12-28T02:17:36.092Z,4.43
2022-12-28T02:21:53.126Z,4.13
2022-12-28T02:26:27.800Z,3.80
2022-12-28T02:30:36.307Z,5.03
2022-12-28T02:34:47.485Z,4.10
2022-12-28T02:38:57.707Z,4.20
2022-12-28T02:43:03.752Z,4.33
2022-12-28T02:47:32.931Z,3.70
2022-12-28T02:51:53.243Z,4.43
2022-12-28T02:56:10.993Z,3.90
2022-12-28T03:00:17.889Z,3.70
2022-12-28T03:04:33.182Z,4.50
2022-12-28T03:08:45.963Z,3.70
2022-12-28T03:12:56.753Z,3.50
2022-12-28T03:17:22.170Z,4.50
2022-12-28T03:21:47.993Z,4.10
2022-12-28T03:26:10.536Z,4.83
2022-12-28T03:30:38.488Z,4.60
2022-12-28T03:34:42.504Z,4.10
2022-12-28T03:38:52.795Z,4.87
2022-12-28T03:43:18.154Z,4.47
2022-12-28T03:47:24.967Z,4.63
2022-12-28T03:51:31.776Z,5.27
2022-12-28T03:55:40.927Z,4.93
2022-12-28T03:59:44.098Z,5.37
2022-12-28T04:03:48.029Z,5.50
2022-12-28T04:07:51.513Z,6.40
2022-12-28T04:11:56.036Z,5.60
2022-12-28T04:16:18.153Z,5.40
2022-12-28T04:20:22.118Z,5.23
2022-12-28T04:24:26.388Z,5.97
2022-12-28T04:28:32.188Z,5.77
2022-12-28T04:32:53.371Z,5.23
2022-12-28T04:36:57.737Z,5.67
2022-12-28T04:41:01.796Z,5.67
2022-12-28T04:45:07.187Z,4.83
2022-12-28T04:49:10.189Z,5.17
2022-12-28T04:53:13.721Z,4.90
2022-12-28T04:57:17.697Z,5.30
2022-12-28T05:01:22.435Z,5.10
2022-12-28T05:05:25.770Z,5.17
2022-12-28T05:09:28.756Z,5.43
2022-12-28T05:13:32.704Z,5.90
2022-12-28T05:17:37.419Z,5.17
2022-12-28T05:21:40.220Z,4.97
2022-12-28T05:25:43.237Z,5.30
2022-12-28T05:29:46.273Z,5.60
2022-12-28T05:33:51.311Z,6.37
2022-12-28T05:37:54.349Z,5.90
2022-12-28T05:42:00.094Z,5.90
2022-12-28T05:46:04.324Z,6.43
2022-12-28T05:50:09.221Z,6.30
2022-12-28T05:54:12.253Z,6.00
2022-12-28T05:58:15.180Z,5.77
2022-12-28T06:02:24.435Z,6.30
2022-12-28T06:06:29.794Z,6.13
2022-12-28T06:10:32.801Z,4.90
2022-12-28T06:14:35.793Z,5.83
2022-12-28T06:18:39.440Z,5.27
2022-12-28T06:22:43.738Z,6.03
2022-12-28T06:26:46.762Z,5.30
2022-12-28T06:30:52.884Z,5.03
2022-12-28T06:34:58.180Z,5.87
2022-12-28T06:39:04.243Z,5.57
2022-12-28T06:43:07.216Z,5.30
2022-12-28T06:47:10.203Z,5.23
2022-12-28T06:51:14.789Z,6.87
2022-12-28T06:55:19.103Z,4.90
2022-12-28T06:59:22.236Z,5.27
2022-12-28T07:03:25.659Z,5.37
2022-12-28T07:07:28.540Z,4.67
2022-12-28T07:11:33.665Z,5.07
2022-12-28T07:15:37.715Z,4.37
2022-12-28T07:19:40.944Z,4.80
2022-12-28T07:23:45.900Z,4.43
2022-12-28T07:27:51.048Z,5.03
2022-12-28T07:31:54.205Z,5.00
2022-12-28T07:35:59.201Z,4.27
2022-12-28T07:40:02.115Z,4.60
2022-12-28T07:44:06.652Z,4.43
2022-12-28T07:48:09.588Z,4.30
2022-12-28T07:52:12.665Z,3.93
2022-12-28T07:56:19.735Z,4.13
2022-12-28T08:00:24.377Z,4.60
2022-12-28T08:04:28.476Z,4.43
2022-12-28T08:08:31.775Z,4.70
2022-12-28T08:12:34.647Z,4.93
2022-12-28T08:16:41.793Z,4.60
2022-12-28T08:20:44.915Z,4.20
2022-12-28T08:24:48.248Z,4.83
2022-12-28T08:28:52.932Z,4.23
2022-12-28T08:32:57.385Z,4.00
2022-12-28T08:37:00.920Z,4.60
2022-12-28T08:41:06.669Z,4.50
2022-12-28T08:45:10.090Z,4.10
2022-12-28T08:49:14.964Z,3.87
2022-12-28T08:53:18.128Z,4.50
2022-12-28T08:57:21.716Z,4.70
2022-12-28T09:01:26.832Z,4.47
2022-12-28T09:05:35.927Z,4.23
2022-12-28T09:09:42.455Z,4.10
2022-12-28T09:13:46.698Z,3.77
2022-12-28T09:17:49.586Z,4.33
2022-12-28T09:21:55.304Z,4.43
2022-12-28T09:25:58.387Z,3.73
2022-12-28T09:30:01.372Z,3.63
2022-12-28T09:38:33.528Z,4.27
2022-12-28T09:42:42.702Z,4.20
2022-12-28T09:46:51.321Z,4.23
2022-12-28T09:50:54.597Z,3.57
2022-12-28T09:55:07.195Z,4.30
2022-12-28T09:59:17.204Z,3.73
2022-12-28T10:03:23.642Z,3.50
2022-12-28T10:07:27.497Z,4.40
2022-12-28T10:11:35.319Z,3.73
2022-12-28T10:15:38.627Z,3.73
2022-12-28T10:19:41.901Z,3.00
2022-12-28T10:24:12.445Z,3.03
2022-12-28T10:28:12.444Z,3.10
2022-12-28T10:32:15.382Z,3.00
2022-12-28T10:36:19.507Z,2.80
2022-12-28T10:40:27.047Z,3.00
2022-12-28T10:44:41.712Z,2.90
2022-12-28T10:48:48.855Z,3.13
2022-12-28T10:52:58.395Z,3.00
2022-12-28T10:57:02.130Z,3.30
2022-12-28T11:01:18.004Z,3.83
2022-12-28T11:05:26.783Z,3.33
2022-12-28T11:09:50.983Z,4.00
2022-12-28T11:14:17.564Z,4.63
2022-12-28T11:18:23.226Z,3.47
2022-12-28T11:22:29.181Z,4.20
2022-12-28T11:26:33.854Z,4.20
2022-12-28T11:30:37.698Z,4.03
2022-12-28T11:34:42.818Z,4.03
2022-12-28T11:38:50.680Z,3.93
2022-12-28T11:42:55.679Z,4.47
2022-12-28T11:47:04.285Z,4.87
2022-12-28T11:51:18.408Z,5.13
2022-12-28T11:55:45.898Z,5.20
2022-12-28T11:59:48.838Z,4.90
2022-12-28T12:04:40.457Z,3.23
2022-12-28T12:08:50.708Z,3.40
2022-12-28T12:12:54.343Z,2.93
2022-12-28T12:17:03.633Z,3.40
2022-12-28T12:21:13.542Z,2.70
2022-12-28T12:25:25.366Z,3.30
2022-12-28T12:29:38.785Z,3.17
2022-12-28T12:33:45.556Z,3.33
2022-12-28T12:38:11.036Z,3.40
2022-12-28T12:42:29.038Z,3.20
2022-12-28T12:47:06.411Z,2.97
2022-12-28T12:51:26.309Z,3.37
2022-12-28T12:55:52.270Z,3.17
2022-12-28T13:00:10.968Z,3.00
2022-12-28T13:04:19.995Z,3.10
2022-12-28T13:08:27.605Z,3.53
2022-12-28T13:12:31.302Z,3.27
2022-12-28T13:16:36.377Z,2.90
2022-12-28T13:20:54.290Z,2.93
2022-12-28T13:24:59.046Z,3.40
2022-12-28T13:29:04.439Z,3.07
2022-12-28T13:33:22.218Z,3.30
2022-12-28T13:37:25.681Z,2.83
2022-12-28T13:41:29.582Z,3.10
2022-12-28T13:45:32.983Z,3.50
2022-12-28T13:49:42.772Z,3.03
2022-12-28T13:53:57.775Z,3.23
2022-12-28T13:58:04.713Z,3.40
2022-12-28T14:02:13.782Z,3.37
2022-12-28T14:06:20.323Z,3.67
2022-12-28T14:10:30.453Z,2.90
2022-12-28T14:14:36.205Z,3.60
2022-12-28T14:18:40.554Z,3.37
2022-12-28T14:22:44.861Z,3.70
2022-12-28T14:26:52.021Z,4.20
2022-12-28T14:31:06.717Z,3.50
2022-12-28T14:35:18.963Z,3.37
2022-12-28T14:39:30.665Z,3.60
2022-12-28T14:43:37.450Z,3.00
2022-12-28T14:47:46.329Z,3.00
2022-12-28T14:52:38.785Z,3.00
2022-12-28T14:56:59.769Z,2.83
2022-12-28T15:01:15.036Z,3.67
2022-12-28T15:05:38.369Z,3.37
2022-12-28T15:09:41.398Z,2.80
2022-12-28T15:13:46.975Z,2.60
2022-12-28T15:17:49.882Z,2.77
2022-12-28T15:21:58.757Z,2.80
2022-12-28T15:26:07.343Z,3.43
2022-12-28T15:30:18.875Z,2.90
2022-12-28T15:34:27.027Z,3.10
2022-12-28T15:38:31.462Z,2.90
2022-12-28T15:42:40.062Z,2.73
2022-12-28T15:46:53.054Z,2.87
2022-12-28T15:51:01.871Z,3.00
2022-12-28T15:55:06.299Z,2.63
2022-12-28T15:59:14.121Z,3.43
2022-12-28T16:03:18.638Z,3.47
2022-12-28T16:07:21.667Z,3.20
2022-12-28T16:11:26.118Z,3.30
2022-12-28T16:15:29.304Z,3.13
2022-12-28T16:19:33.859Z,3.33
2022-12-28T16:23:38.723Z,3.43
2022-12-28T16:27:45.765Z,3.87
2022-12-28T16:31:48.908Z,4.70
2022-12-28T16:36:00.076Z,4.67
2022-12-28T16:40:03.887Z,4.30
2022-12-28T16:44:10.196Z,3.67
2022-12-28T16:48:15.733Z,3.03
2022-12-28T16:52:31.469Z,3.00
2022-12-28T16:56:34.709Z,3.17
2022-12-28T17:00:37.791Z,4.10
2022-12-28T17:04:40.799Z,3.87
2022-12-28T17:08:46.284Z,4.40
2022-12-28T17:12:49.545Z,3.80
2022-12-28T17:16:52.918Z,4.63
2022-12-28T17:21:01.856Z,3.83
2022-12-28T17:25:25.799Z,3.70
2022-12-28T17:29:44.876Z,4.37
2022-12-28T17:33:49.055Z,3.60
2022-12-28T17:37:52.395Z,4.33
2022-12-28T17:41:58.957Z,4.23
2022-12-28T17:46:02.979Z,3.70
2022-12-28T17:50:07.316Z,5.13
2022-12-28T17:54:16.988Z,5.20
2022-12-28T17:58:23.051Z,4.20
2022-12-28T18:02:26.260Z,4.10
2022-12-28T18:06:30.248Z,4.00
2022-12-28T18:10:42.684Z,4.63
2022-12-28T18:14:58.224Z,4.30
2022-12-28T18:19:15.307Z,4.03
2022-12-28T18:23:33.076Z,4.00
2022-12-28T18:27:50.519Z,6.23
2022-12-28T18:31:54.681Z,7.00
2022-12-28T18:35:57.649Z,4.93
2022-12-28T18:40:00.551Z,4.63
2022-12-28T18:44:05.141Z,4.97
2022-12-28T18:48:10.105Z,4.30
2022-12-28T18:52:26.848Z,4.37
2022-12-28T18:56:29.733Z,4.77
2022-12-28T19:00:32.747Z,5.50
2022-12-28T19:04:37.292Z,4.83
2022-12-28T19:08:42.378Z,6.17
2022-12-28T19:12:45.488Z,4.20
2022-12-28T19:16:48.446Z,4.27
2022-12-28T19:20:56.618Z,5.57
2022-12-28T19:24:59.755Z,4.40
2022-12-28T19:29:04.132Z,4.50
2022-12-28T19:33:07.173Z,3.97
2022-12-28T19:37:12.449Z,4.97
2022-12-28T19:41:16.929Z,8.33
2022-12-28T19:45:19.870Z,5.23
2022-12-28T19:49:24.080Z,4.80
2022-12-28T19:53:29.980Z,4.80
2022-12-28T19:57:33.172Z,5.90
2022-12-28T20:01:38.988Z,4.87
2022-12-28T20:05:44.132Z,4.80
2022-12-28T20:09:51.508Z,5.10
2022-12-28T20:13:57.079Z,5.67
2022-12-28T20:18:00.133Z,5.33
2022-12-28T20:22:03.160Z,5.17
2022-12-28T20:26:08.217Z,15.50
2022-12-28T20:30:12.104Z,11.67
2022-12-28T20:34:14.878Z,6.00
2022-12-28T20:38:18.489Z,13.40
2022-12-28T20:42:42.000Z,7.23
2022-12-28T20:46:46.219Z,5.17
2022-12-28T20:50:49.640Z,5.53
2022-12-28T20:54:52.564Z,6.03
2022-12-28T20:59:00.538Z,7.83
2022-12-28T21:03:04.352Z,6.17
2022-12-28T21:07:07.676Z,6.97
2022-12-28T21:11:11.038Z,5.03
2022-12-28T21:15:17.155Z,5.97
2022-12-28T21:19:21.647Z,5.50
2022-12-28T21:23:24.933Z,5.73
2022-12-28T21:27:29.153Z,5.50
2022-12-28T21:31:33.593Z,4.43
2022-12-28T21:35:38.607Z,4.37
2022-12-28T21:39:43.654Z,4.63
2022-12-28T21:43:46.708Z,4.43
2022-12-28T21:47:51.309Z,4.97
2022-12-28T21:52:17.055Z,7.40
2022-12-28T21:56:34.109Z,4.07
2022-12-28T22:01:17.215Z,4.43
2022-12-28T22:05:56.351Z,4.67
2022-12-28T22:10:17.226Z,4.60
2022-12-28T22:14:20.092Z,4.37
2022-12-28T22:23:00.720Z,3.77
2022-12-28T22:27:08.480Z,4.00
2022-12-28T22:31:11.454Z,3.90
2022-12-28T22:35:14.582Z,3.40
2022-12-28T22:39:25.443Z,3.67
2022-12-28T22:43:49.838Z,3.67
2022-12-28T22:48:17.474Z,3.83
2022-12-28T22:52:51.638Z,3.53
2022-12-28T22:56:56.474Z,3.50
2022-12-28T23:01:08.569Z,3.67
2022-12-28T23:05:11.616Z,3.73
2022-12-28T23:09:14.502Z,3.17
2022-12-28T23:13:22.965Z,3.17
2022-12-28T23:17:27.516Z,2.97
2022-12-28T23:21:49.668Z,3.20
2022-12-28T23:26:10.206Z,3.47
2022-12-28T23:30:17.917Z,3.27
2022-12-28T23:34:21.092Z,3.03
2022-12-28T23:38:26.680Z,3.10
2022-12-28T23:42:29.719Z,3.10
2022-12-28T23:46:34.474Z,2.67
2022-12-28T23:50:39.660Z,2.73
2022-12-28T23:54:42.638Z,2.53
2022-12-28T23:58:46.601Z,2.50
